Time,TemperatureF,DewpointF,PressureIn,WindDirection,WindDirectionDegrees,WindSpeedMPH,WindSpeedGustMPH,Humidity,HourlyPrecipIn,Conditions,Clouds,dailyrainin,SolarRadiationWatts/m^2,SoftwareType,DateUTC
2013-09-27 00:02:00,54.0,28.0,-100.00,SW,228,9.0,17.0,36,0.00,,,0.00,0.000000,,2013-09-27 06:02:00,
2013-09-27 00:11:00,54.0,28.0,-100.00,SW,228,9.0,17.0,36,0.00,,,0.00,0.000000,,2013-09-27 06:11:00,
2013-09-27 00:12:00,53.0,28.0,-100.00,SW,219,8.0,17.0,38,0.00,,,0.00,0.000000,,2013-09-27 06:12:00,
2013-09-27 00:43:00,53.0,28.0,-100.00,SW,219,8.0,17.0,38,0.00,,,0.00,0.000000,,2013-09-27 06:43:00,
2013-09-27 00:52:00,53.0,28.0,-100.00,SW,219,8.0,17.0,38,0.00,,,0.00,0.000000,,2013-09-27 06:52:00,
2013-09-27 01:02:00,53.0,28.0,-100.00,SW,219,8.0,17.0,38,0.00,,,0.00,0.000000,,2013-09-27 07:02:00,
2013-09-27 01:44:00,53.0,30.0,-100.00,SSW,210,9.0,17.0,41,0.00,,,0.00,0.000000,,2013-09-27 07:44:00,
2013-09-27 01:53:00,53.0,30.0,-100.00,SSW,210,9.0,17.0,41,0.00,,,0.00,0.000000,,2013-09-27 07:53:00,
2013-09-27 02:02:00,53.0,30.0,-100.00,SSW,210,9.0,17.0,41,0.00,,,0.00,0.000000,,2013-09-27 08:02:00,
2013-09-27 02:11:00,53.0,30.0,-100.00,SSW,210,9.0,17.0,41,0.00,,,0.00,0.000000,,2013-09-27 08:11:00,
2013-09-27 02:42:00,52.0,32.0,-100.00,SSW,201,11.0,17.0,46,0.00,,,0.00,0.000000,,2013-09-27 08:42:00,
2013-09-27 02:52:00,52.0,32.0,-100.00,SSW,201,11.0,17.0,46,0.00,,,0.00,0.000000,,2013-09-27 08:52:00,
2013-09-27 03:02:00,52.0,32.0,-100.00,SSW,201,11.0,17.0,46,0.00,,,0.00,0.000000,,2013-09-27 09:02:00,
2013-09-27 03:11:00,52.0,32.0,-100.00,SSW,201,11.0,17.0,46,0.00,,,0.00,0.000000,,2013-09-27 09:11:00,
2013-09-27 03:12:00,51.0,31.0,-100.00,South,175,11.0,18.0,46,0.00,,,0.00,0.000000,,2013-09-27 09:12:00,
2013-09-27 03:44:00,51.0,31.0,-100.00,South,175,11.0,18.0,46,0.00,,,0.00,0.000000,,2013-09-27 09:44:00,
2013-09-27 03:53:00,51.0,31.0,-100.00,South,175,11.0,18.0,46,0.00,,,0.00,0.000000,,2013-09-27 09:53:00,
2013-09-27 04:03:00,51.0,31.0,-100.00,South,175,11.0,18.0,46,0.00,,,0.00,0.000000,,2013-09-27 10:03:00,
2013-09-27 04:42:00,51.0,31.0,-100.00,SSW,193,8.0,21.0,46,0.00,,,0.00,0.000000,,2013-09-27 10:42:00,
2013-09-27 04:52:00,51.0,31.0,-100.00,SSW,193,8.0,21.0,46,0.00,,,0.00,0.000000,,2013-09-27 10:52:00,
2013-09-27 05:02:00,51.0,31.0,-100.00,SSW,193,8.0,21.0,46,0.00,,,0.00,0.000000,,2013-09-27 11:02:00,
2013-09-27 05:11:00,51.0,31.0,-100.00,SSW,193,8.0,21.0,46,0.00,,,0.00,0.000000,,2013-09-27 11:11:00,
2013-09-27 05:43:00,44.0,40.0,-100.00,WSW,242,9.0,17.0,86,0.00,,,0.00,0.000000,,2013-09-27 11:43:00,
2013-09-27 05:52:00,44.0,40.0,-100.00,WSW,242,9.0,17.0,86,0.00,,,0.00,0.000000,,2013-09-27 11:52:00,
2013-09-27 06:02:00,44.0,40.0,-100.00,WSW,242,9.0,17.0,86,0.00,,,0.00,0.000000,,2013-09-27 12:02:00,
2013-09-27 06:11:00,44.0,40.0,-100.00,WSW,242,9.0,17.0,86,0.00,,,0.00,0.000000,,2013-09-27 12:11:00,
2013-09-27 06:42:00,42.0,40.0,-100.00,WSW,257,12.0,22.0,94,0.05,,,0.05,0.000000,,2013-09-27 12:42:00,
2013-09-27 06:52:00,42.0,40.0,-100.00,WSW,257,12.0,22.0,94,0.05,,,0.05,0.000000,,2013-09-27 12:52:00,
2013-09-27 07:02:00,42.0,40.0,-100.00,WSW,257,12.0,22.0,94,0.05,,,0.05,0.000000,,2013-09-27 13:02:00,
2013-09-27 07:11:00,42.0,40.0,-100.00,WSW,257,12.0,22.0,94,0.05,,,0.05,0.000000,,2013-09-27 13:11:00,
2013-09-27 07:42:00,42.0,41.0,-100.00,SW,223,5.0,21.0,98,0.01,,,0.06,0.000000,,2013-09-27 13:42:00,
2013-09-27 07:52:00,42.0,41.0,-100.00,SW,223,5.0,21.0,98,0.01,,,0.06,0.000000,,2013-09-27 13:52:00,
2013-09-27 08:02:00,42.0,41.0,-100.00,SW,223,5.0,21.0,98,0.01,,,0.06,0.000000,,2013-09-27 14:02:00,
2013-09-27 08:11:00,42.0,41.0,-100.00,SW,223,5.0,21.0,98,0.01,,,0.06,0.000000,,2013-09-27 14:11:00,
2013-09-27 08:42:00,41.0,40.0,-100.00,WNW,299,7.0,13.0,98,0.05,,,0.11,11.000000,,2013-09-27 14:42:00,
2013-09-27 08:52:00,41.0,40.0,-100.00,WNW,299,7.0,13.0,98,0.05,,,0.11,11.000000,,2013-09-27 14:52:00,
2013-09-27 09:02:00,41.0,40.0,-100.00,WNW,299,7.0,13.0,98,0.05,,,0.11,11.000000,,2013-09-27 15:02:00,
2013-09-27 09:11:00,41.0,40.0,-100.00,WNW,299,7.0,13.0,98,0.05,,,0.11,11.000000,,2013-09-27 15:11:00,
2013-09-27 09:12:00,38.0,37.0,-100.00,West,262,10.0,20.0,98,0.04,,,0.15,26.000000,,2013-09-27 15:12:00,
2013-09-27 09:44:00,38.0,37.0,-100.00,West,262,10.0,20.0,98,0.04,,,0.15,26.000000,,2013-09-27 15:44:00,
2013-09-27 09:54:00,38.0,37.0,-100.00,West,262,10.0,20.0,98,0.04,,,0.15,26.000000,,2013-09-27 15:54:00,
2013-09-27 10:04:00,38.0,37.0,-100.00,West,262,10.0,20.0,98,0.04,,,0.15,26.000000,,2013-09-27 16:04:00,
2013-09-27 10:12:00,37.0,36.0,-100.00,West,265,9.0,16.0,97,0.06,,,0.21,66.000000,,2013-09-27 16:12:00,
2013-09-27 10:44:00,37.0,36.0,-100.00,West,265,9.0,16.0,97,0.06,,,0.21,66.000000,,2013-09-27 16:44:00,
2013-09-27 10:53:00,37.0,36.0,-100.00,West,265,9.0,16.0,97,0.06,,,0.21,66.000000,,2013-09-27 16:53:00,
2013-09-27 11:03:00,37.0,36.0,-100.00,West,265,9.0,16.0,97,0.06,,,0.21,66.000000,,2013-09-27 17:03:00,
2013-09-27 11:12:00,37.0,35.0,-100.00,WSW,256,6.0,14.0,92,0.01,,,0.22,103.000000,,2013-09-27 17:12:00,
2013-09-27 11:43:00,37.0,35.0,-100.00,WSW,256,6.0,14.0,92,0.01,,,0.22,103.000000,,2013-09-27 17:43:00,
2013-09-27 11:52:00,37.0,35.0,-100.00,WSW,256,6.0,14.0,92,0.01,,,0.22,103.000000,,2013-09-27 17:52:00,
2013-09-27 12:02:00,37.0,35.0,-100.00,WSW,256,6.0,14.0,92,0.01,,,0.22,103.000000,,2013-09-27 18:02:00,
2013-09-27 12:12:00,38.0,36.0,-100.00,West,260,4.0,9.0,92,0.00,,,0.22,83.000000,,2013-09-27 18:12:00,
2013-09-27 12:43:00,38.0,36.0,-100.00,West,260,4.0,9.0,92,0.00,,,0.22,83.000000,,2013-09-27 18:43:00,
2013-09-27 12:52:00,38.0,36.0,-100.00,West,260,4.0,9.0,92,0.00,,,0.22,83.000000,,2013-09-27 18:52:00,
2013-09-27 13:02:00,38.0,36.0,-100.00,West,260,4.0,9.0,92,0.00,,,0.22,83.000000,,2013-09-27 19:02:00,
2013-09-27 13:12:00,37.0,36.0,-100.00,NW,304,7.0,14.0,95,0.04,,,0.26,77.000000,,2013-09-27 19:12:00,
2013-09-27 13:43:00,37.0,36.0,-100.00,NW,304,7.0,14.0,95,0.04,,,0.26,77.000000,,2013-09-27 19:43:00,
2013-09-27 13:53:00,37.0,36.0,-100.00,NW,304,7.0,14.0,95,0.04,,,0.26,77.000000,,2013-09-27 19:53:00,
2013-09-27 14:03:00,37.0,36.0,-100.00,NW,304,7.0,14.0,95,0.04,,,0.26,77.000000,,2013-09-27 20:03:00,
2013-09-27 14:43:00,36.0,33.0,-100.00,WNW,299,7.0,12.0,90,0.02,,,0.28,101.000000,,2013-09-27 20:43:00,
2013-09-27 14:52:00,36.0,33.0,-100.00,WNW,299,7.0,12.0,90,0.02,,,0.28,101.000000,,2013-09-27 20:52:00,
2013-09-27 15:02:00,36.0,33.0,-100.00,WNW,299,7.0,12.0,90,0.02,,,0.28,101.000000,,2013-09-27 21:02:00,
2013-09-27 15:11:00,36.0,33.0,-100.00,WNW,299,7.0,12.0,90,0.02,,,0.28,101.000000,,2013-09-27 21:11:00,
2013-09-27 15:12:00,38.0,35.0,-100.00,SSW,203,4.0,11.0,88,0.00,,,0.28,182.000000,,2013-09-27 21:12:00,
2013-09-27 15:44:00,38.0,35.0,-100.00,SSW,203,4.0,11.0,88,0.00,,,0.28,182.000000,,2013-09-27 21:44:00,
2013-09-27 15:54:00,38.0,35.0,-100.00,SSW,203,4.0,11.0,88,0.00,,,0.28,182.000000,,2013-09-27 21:54:00,
2013-09-27 16:04:00,38.0,35.0,-100.00,SSW,203,4.0,11.0,88,0.00,,,0.28,182.000000,,2013-09-27 22:04:00,
2013-09-27 16:12:00,38.0,37.0,-100.00,South,176,6.0,10.0,95,0.00,,,-99.99,123.000000,,2013-09-27 22:12:00,
2013-09-27 16:43:00,38.0,37.0,-100.00,South,176,6.0,10.0,95,0.00,,,-99.99,123.000000,,2013-09-27 22:43:00,
2013-09-27 16:53:00,38.0,37.0,-100.00,South,176,6.0,10.0,95,0.00,,,-99.99,123.000000,,2013-09-27 22:53:00,
2013-09-27 17:03:00,38.0,37.0,-100.00,South,176,6.0,10.0,95,0.00,,,-99.99,123.000000,,2013-09-27 23:03:00,
2013-09-27 17:12:00,43.0,41.0,-100.00,SSW,202,5.0,9.0,91,0.00,,,0.28,129.000000,,2013-09-27 23:12:00,
2013-09-27 17:43:00,43.0,41.0,-100.00,SSW,202,5.0,9.0,91,0.00,,,0.28,129.000000,,2013-09-27 23:43:00,
2013-09-27 17:53:00,43.0,41.0,-100.00,SSW,202,5.0,9.0,91,0.00,,,0.28,129.000000,,2013-09-27 23:53:00,
2013-09-27 18:02:00,43.0,41.0,-100.00,SSW,202,5.0,9.0,91,0.00,,,0.28,129.000000,,2013-09-28 00:02:00,
2013-09-27 18:12:00,40.0,22.0,-100.00,WNW,284,8.0,16.0,49,0.00,,,0.28,108.000000,,2013-09-28 00:12:00,
2013-09-27 18:52:00,40.0,22.0,-100.00,WNW,284,8.0,16.0,49,0.00,,,0.28,108.000000,,2013-09-28 00:52:00,
2013-09-27 19:01:00,40.0,22.0,-100.00,WNW,284,8.0,16.0,49,0.00,,,0.28,108.000000,,2013-09-28 01:01:00,
2013-09-27 19:12:00,37.0,20.0,-100.00,WNW,292,10.0,18.0,49,0.00,,,0.28,18.000000,,2013-09-28 01:12:00,
2013-09-27 20:12:00,36.0,21.0,-100.00,NW,308,8.0,15.0,54,0.00,,,0.28,0.000000,,2013-09-28 02:12:00,
2013-09-27 20:42:00,36.0,21.0,-100.00,NW,308,8.0,15.0,54,0.00,,,0.28,0.000000,,2013-09-28 02:42:00,
2013-09-27 20:53:00,36.0,21.0,-100.00,NW,308,8.0,15.0,54,0.00,,,0.28,0.000000,,2013-09-28 02:53:00,
2013-09-27 21:03:00,36.0,21.0,-100.00,NW,308,8.0,15.0,54,0.00,,,0.28,0.000000,,2013-09-28 03:03:00,
2013-09-27 21:12:00,34.0,22.0,-100.00,NW,324,7.0,12.0,61,0.00,,,0.28,0.000000,,2013-09-28 03:12:00,
2013-09-27 21:45:00,34.0,22.0,-100.00,NW,324,7.0,12.0,61,0.00,,,0.28,0.000000,,2013-09-28 03:45:00,
2013-09-27 21:55:00,34.0,22.0,-100.00,NW,324,7.0,12.0,61,0.00,,,0.28,0.000000,,2013-09-28 03:55:00,
2013-09-27 22:04:00,34.0,22.0,-100.00,NW,324,7.0,12.0,61,0.00,,,0.28,0.000000,,2013-09-28 04:04:00,
2013-09-27 22:12:00,34.0,22.0,-100.00,NNW,330,9.0,14.0,61,0.00,,,0.28,0.000000,,2013-09-28 04:12:00,
2013-09-27 22:43:00,34.0,22.0,-100.00,NNW,330,9.0,14.0,61,0.00,,,0.28,0.000000,,2013-09-28 04:43:00,
2013-09-27 22:54:00,34.0,22.0,-100.00,NNW,330,9.0,14.0,61,0.00,,,0.28,0.000000,,2013-09-28 04:54:00,
2013-09-27 23:03:00,34.0,22.0,-100.00,NNW,330,9.0,14.0,61,0.00,,,0.28,0.000000,,2013-09-28 05:03:00,
2013-09-27 23:12:00,34.0,20.0,-100.00,NNW,327,9.0,16.0,57,0.00,,,0.28,0.000000,,2013-09-28 05:12:00,
2013-09-27 23:43:00,34.0,20.0,-100.00,NNW,327,9.0,16.0,57,0.00,,,0.28,0.000000,,2013-09-28 05:43:00,
2013-09-27 23:53:00,34.0,20.0,-100.00,NNW,327,9.0,16.0,57,0.00,,,0.28,0.000000,,2013-09-28 05:53:00,